Terminal Aerodrome Forecast
Issued by NWS Billings, MT

Home | Current Version | Previous Version | Graphics & Text | Print | Product List | Glossary On
Versions: 1 2 3 4 5 6 7 8 9 10 11 12 13
000
FTUS45 KBYZ 150925 AAA
TAFMLS
TAF AMD
KMLS 150925Z 1509/1606 29006KT P6SM VCFG FEW010
      TEMPO 1510/1514 BKN009
     FM151400 14008KT P6SM SCT200
     FM151800 15014KT P6SM SCT200
     FM160200 15015KT P6SM BKN150=

USA.gov is the U.S. government's official web portal to all federal, state and local government web resources and services.